createdAt,value
2022-09-11T00:00:13.002Z,14.77
2022-09-11T00:03:02.212Z,14.77
2022-09-11T00:05:31.691Z,14.74
2022-09-11T00:08:00.858Z,14.72
2022-09-11T00:10:30.059Z,14.72
2022-09-11T00:12:59.838Z,14.74
2022-09-11T00:15:30.492Z,14.70
2022-09-11T00:17:59.699Z,14.66
2022-09-11T00:20:29.157Z,14.64
2022-09-11T00:22:58.436Z,14.61
2022-09-11T00:25:27.585Z,14.59
2022-09-11T00:27:57.347Z,14.59
2022-09-11T00:30:26.742Z,14.57
2022-09-11T00:32:57.785Z,14.55
2022-09-11T00:35:27.477Z,14.56
2022-09-11T00:37:57.126Z,14.59
2022-09-11T00:40:26.428Z,14.59
2022-09-11T00:42:57.537Z,14.58
2022-09-11T00:45:29.521Z,14.59
2022-09-11T00:48:01.312Z,14.61
2022-09-11T00:50:32.719Z,14.62
2022-09-11T00:53:09.939Z,14.65
2022-09-11T00:55:42.594Z,14.61
2022-09-11T00:58:16.576Z,14.63
2022-09-11T01:00:47.083Z,14.62
2022-09-11T01:03:19.511Z,14.60
2022-09-11T01:05:49.582Z,14.61
2022-09-11T01:08:20.912Z,14.61
2022-09-11T01:11:03.845Z,14.61
2022-09-11T01:13:39.944Z,14.61
2022-09-11T01:16:19.168Z,14.61
2022-09-11T01:19:01.088Z,14.62
2022-09-11T01:21:56.724Z,14.62
2022-09-11T01:24:40.983Z,14.63
2022-09-11T01:27:51.036Z,14.60
2022-09-11T01:30:22.927Z,14.60
2022-09-11T01:33:17.237Z,14.61
2022-09-11T01:35:57.176Z,14.57
2022-09-11T01:38:33.855Z,14.55
2022-09-11T01:41:09.312Z,14.52
2022-09-11T01:43:45.343Z,14.50
2022-09-11T01:46:23.145Z,14.54
2022-09-11T01:49:01.497Z,14.56
2022-09-11T01:51:35.248Z,14.54
2022-09-11T01:54:10.401Z,14.54
2022-09-11T01:56:45.759Z,14.56
2022-09-11T01:59:28.051Z,14.54
2022-09-11T02:02:06.786Z,14.56
2022-09-11T02:04:41.011Z,14.56
2022-09-11T02:07:16.495Z,14.56
2022-09-11T02:09:53.674Z,14.56
2022-09-11T02:12:28.478Z,14.56
2022-09-11T02:14:59.368Z,14.57
2022-09-11T02:17:41.523Z,14.59
2022-09-11T02:20:12.419Z,14.59
2022-09-11T02:22:42.233Z,14.61
2022-09-11T02:25:11.973Z,14.62
2022-09-11T02:27:42.493Z,14.62
2022-09-11T02:30:14.813Z,14.64
2022-09-11T02:32:46.146Z,14.62
2022-09-11T02:35:16.440Z,14.63
2022-09-11T02:37:54.112Z,14.64
2022-09-11T02:40:47.668Z,14.64
2022-09-11T02:43:35.064Z,14.63
2022-09-11T02:46:41.972Z,14.64
2022-09-11T02:49:21.618Z,14.63
2022-09-11T02:52:01.596Z,14.63
2022-09-11T02:54:43.328Z,14.61
2022-09-11T02:57:19.892Z,14.60
2022-09-11T02:59:55.737Z,14.60
2022-09-11T03:02:28.852Z,14.60
2022-09-11T03:04:59.069Z,14.61
2022-09-11T03:07:28.588Z,14.61
2022-09-11T03:09:57.919Z,14.60
2022-09-11T03:12:28.657Z,14.59
2022-09-11T03:14:58.464Z,14.59
2022-09-11T03:17:29.203Z,14.57
2022-09-11T03:19:58.695Z,14.56
2022-09-11T03:22:27.918Z,14.57
2022-09-11T03:24:57.194Z,14.56
2022-09-11T03:27:28.574Z,14.52
2022-09-11T03:29:58.035Z,14.51
2022-09-11T03:32:28.650Z,14.49
2022-09-11T03:35:01.281Z,14.51
2022-09-11T03:37:33.839Z,14.52
2022-09-11T03:40:04.124Z,14.51
2022-09-11T03:42:33.543Z,14.54
2022-09-11T03:45:02.903Z,14.53
2022-09-11T03:47:34.100Z,14.53
2022-09-11T03:50:03.302Z,14.53
2022-09-11T03:52:32.533Z,14.51
2022-09-11T03:55:01.999Z,14.52
2022-09-11T03:57:33.818Z,14.51
2022-09-11T04:00:05.171Z,14.47
2022-09-11T04:02:50.807Z,14.43
2022-09-11T04:05:40.590Z,14.40
2022-09-11T04:08:12.058Z,14.39
2022-09-11T04:10:43.368Z,14.36
2022-09-11T04:13:12.815Z,14.36
2022-09-11T04:15:42.706Z,14.37
2022-09-11T04:18:14.048Z,14.36
2022-09-11T04:20:43.635Z,14.36
2022-09-11T04:23:14.268Z,14.37
2022-09-11T04:25:46.039Z,14.39
2022-09-11T04:28:15.674Z,14.40
2022-09-11T04:30:44.953Z,14.40
2022-09-11T04:33:16.424Z,14.41
2022-09-11T04:35:46.011Z,14.41
2022-09-11T04:38:15.339Z,14.41
2022-09-11T04:40:45.221Z,14.38
2022-09-11T04:43:17.431Z,14.37
2022-09-11T04:45:47.424Z,14.37
2022-09-11T04:48:18.297Z,14.35
2022-09-11T04:50:48.284Z,14.36
2022-09-11T04:53:25.035Z,14.34
2022-09-11T04:56:01.821Z,14.32
2022-09-11T04:58:32.968Z,14.34
2022-09-11T05:01:02.816Z,14.36
2022-09-11T05:03:33.571Z,14.34
2022-09-11T05:06:06.784Z,14.33
2022-09-11T05:08:36.791Z,14.34
2022-09-11T05:11:08.474Z,14.32
2022-09-11T05:13:37.703Z,14.32
2022-09-11T05:16:09.397Z,14.34
2022-09-11T05:18:41.513Z,14.34
2022-09-11T05:21:14.673Z,14.34
2022-09-11T05:23:48.072Z,14.37
2022-09-11T05:26:19.796Z,14.36
2022-09-11T05:28:49.603Z,14.38
2022-09-11T05:31:20.363Z,14.40
2022-09-11T05:33:52.048Z,14.40
2022-09-11T05:36:21.308Z,14.42
2022-09-11T05:38:51.219Z,14.41
2022-09-11T05:41:22.302Z,14.39
2022-09-11T05:43:51.513Z,14.37
2022-09-11T05:46:22.672Z,14.38
2022-09-11T05:48:59.252Z,14.39
2022-09-11T05:51:30.108Z,14.40
2022-09-11T05:54:02.172Z,14.42
2022-09-11T05:56:32.116Z,14.41
2022-09-11T05:59:05.455Z,14.39
2022-09-11T06:01:39.000Z,14.37
2022-09-11T06:04:19.789Z,14.36
2022-09-11T06:06:51.336Z,14.37
2022-09-11T06:09:22.019Z,14.36
2022-09-11T06:11:51.595Z,14.38
2022-09-11T06:14:21.545Z,14.35
2022-09-11T06:16:57.013Z,14.34
2022-09-11T06:19:29.188Z,14.34
2022-09-11T06:21:58.926Z,14.37
2022-09-11T06:24:37.856Z,14.39
2022-09-11T06:27:07.833Z,14.37
2022-09-11T06:29:40.458Z,14.35
2022-09-11T06:32:09.726Z,14.34
2022-09-11T06:34:42.774Z,14.35
2022-09-11T06:37:15.280Z,14.37
2022-09-11T06:39:44.936Z,14.37
2022-09-11T06:42:20.977Z,14.38
2022-09-11T06:44:52.091Z,14.37
2022-09-11T06:47:22.697Z,14.34
2022-09-11T06:49:53.672Z,14.35
2022-09-11T06:52:29.105Z,14.39
2022-09-11T06:55:21.792Z,14.41
2022-09-11T06:57:58.203Z,14.43
2022-09-11T07:00:31.121Z,14.46
2022-09-11T07:03:02.206Z,14.48
2022-09-11T07:05:34.241Z,14.53
2022-09-11T07:08:05.499Z,14.56
2022-09-11T07:10:38.265Z,14.60
2022-09-11T07:13:07.510Z,14.63
2022-09-11T07:15:36.874Z,14.68
2022-09-11T07:18:06.801Z,14.72
2022-09-11T07:20:39.977Z,14.78
2022-09-11T07:23:09.740Z,14.83
2022-09-11T07:25:40.455Z,14.89
2022-09-11T07:28:12.306Z,14.97
2022-09-11T07:30:42.344Z,15.06
2022-09-11T07:33:12.009Z,15.12
2022-09-11T07:35:42.824Z,15.17
2022-09-11T07:38:13.023Z,15.22
2022-09-11T07:40:44.158Z,15.28
2022-09-11T07:43:14.852Z,15.33
2022-09-11T07:45:43.843Z,15.37
2022-09-11T07:48:13.599Z,15.44
2022-09-11T07:50:44.473Z,15.54
2022-09-11T07:53:13.718Z,15.61
2022-09-11T07:55:43.762Z,15.72
2022-09-11T07:58:13.592Z,15.78
2022-09-11T08:00:43.149Z,15.85
2022-09-11T08:03:20.216Z,15.93
2022-09-11T08:05:50.892Z,15.99
2022-09-11T08:08:21.181Z,16.04
2022-09-11T08:10:51.261Z,16.09
2022-09-11T08:13:20.499Z,16.12
2022-09-11T08:15:50.481Z,16.16
2022-09-11T08:18:21.887Z,16.20
2022-09-11T08:20:54.440Z,16.22
2022-09-11T08:23:23.626Z,16.23
2022-09-11T08:25:54.293Z,16.20
2022-09-11T08:28:24.006Z,16.20
2022-09-11T08:30:59.221Z,16.18
2022-09-11T08:33:28.527Z,16.21
2022-09-11T08:36:02.190Z,16.28
2022-09-11T08:38:32.060Z,16.33
2022-09-11T08:41:12.105Z,16.43
2022-09-11T08:43:50.841Z,16.49
2022-09-11T08:46:23.161Z,16.61
2022-09-11T08:49:02.283Z,16.71
2022-09-11T08:51:35.430Z,16.76
2022-09-11T08:54:06.730Z,16.83
2022-09-11T08:56:40.953Z,16.89
2022-09-11T08:59:20.254Z,16.96
2022-09-11T09:01:59.685Z,17.03
2022-09-11T09:04:44.522Z,17.13
2022-09-11T09:07:26.634Z,17.21
2022-09-11T09:10:04.479Z,17.26
2022-09-11T09:12:45.153Z,17.31
2022-09-11T09:15:29.186Z,17.37
2022-09-11T09:18:03.182Z,17.44
2022-09-11T09:20:37.321Z,17.47
2022-09-11T09:23:14.935Z,17.53
2022-09-11T09:25:46.805Z,17.55
2022-09-11T09:28:21.356Z,17.56
2022-09-11T09:30:54.524Z,17.56
2022-09-11T09:33:33.799Z,17.50
2022-09-11T09:36:16.008Z,17.54
2022-09-11T09:38:48.941Z,17.52
2022-09-11T09:41:44.050Z,17.51
2022-09-11T09:44:24.016Z,17.47
2022-09-11T09:46:55.625Z,17.42
2022-09-11T09:49:28.667Z,17.43
2022-09-11T09:52:04.082Z,17.44
2022-09-11T09:54:37.123Z,17.45
2022-09-11T09:57:08.658Z,17.48
2022-09-11T09:59:43.039Z,17.53
2022-09-11T10:02:12.454Z,17.61
2022-09-11T10:04:42.191Z,17.71
2022-09-11T10:07:14.198Z,17.83
2022-09-11T10:09:51.554Z,17.91
2022-09-11T10:12:24.376Z,17.99
2022-09-11T10:14:57.530Z,18.03
2022-09-11T10:17:35.227Z,18.05
2022-09-11T10:20:26.028Z,18.08
2022-09-11T10:22:56.716Z,18.09
2022-09-11T10:25:30.166Z,18.14
2022-09-11T10:28:06.142Z,18.16
2022-09-11T10:30:39.008Z,18.20
2022-09-11T10:33:18.950Z,18.22
2022-09-11T10:35:51.160Z,18.16
2022-09-11T10:38:21.853Z,18.21
2022-09-11T10:41:07.934Z,18.28
2022-09-11T10:43:52.176Z,18.35
2022-09-11T10:46:30.307Z,18.41
2022-09-11T10:49:01.468Z,18.49
2022-09-11T10:51:32.867Z,18.67
2022-09-11T10:54:23.320Z,18.78
2022-09-11T10:57:05.336Z,18.80
2022-09-11T10:59:42.566Z,18.98
2022-09-11T11:02:21.436Z,19.83
2022-09-11T11:04:51.149Z,21.44
2022-09-11T11:07:36.522Z,22.04
2022-09-11T11:10:19.884Z,23.27
2022-09-11T11:13:05.452Z,22.70
2022-09-11T11:16:03.651Z,22.19
2022-09-11T11:18:59.866Z,21.76
2022-09-11T11:21:41.688Z,21.68
2022-09-11T11:24:25.476Z,21.50
2022-09-11T11:27:11.108Z,21.39
2022-09-11T11:30:04.757Z,21.13
2022-09-11T11:33:17.367Z,20.95
2022-09-11T11:35:59.121Z,20.93
2022-09-11T11:38:35.678Z,20.93
2022-09-11T11:41:10.727Z,20.94
2022-09-11T11:43:43.535Z,20.93
2022-09-11T11:46:19.465Z,20.95
2022-09-11T11:48:54.869Z,20.94
2022-09-11T11:51:49.187Z,20.97
2022-09-11T11:54:26.716Z,21.00
2022-09-11T11:57:01.445Z,21.06
2022-09-11T11:59:37.071Z,21.06
2022-09-11T12:02:17.726Z,21.05
2022-09-11T12:04:51.646Z,21.05
2022-09-11T12:07:25.728Z,21.05
2022-09-11T12:09:57.418Z,21.00
2022-09-11T12:12:32.403Z,21.04
2022-09-11T12:15:07.494Z,21.07
2022-09-11T12:17:39.995Z,21.03
2022-09-11T12:20:33.347Z,21.07
2022-09-11T12:23:03.251Z,21.16
2022-09-11T12:26:05.076Z,21.18
2022-09-11T12:28:35.832Z,21.20
2022-09-11T12:31:07.437Z,21.14
2022-09-11T12:33:57.648Z,21.13
2022-09-11T12:36:48.094Z,21.03
2022-09-11T12:39:26.032Z,21.02
2022-09-11T12:42:27.135Z,21.00
2022-09-11T12:45:00.808Z,20.95
2022-09-11T12:47:36.640Z,20.93
2022-09-11T12:50:28.143Z,20.97
2022-09-11T12:53:17.877Z,20.99
2022-09-11T12:56:01.892Z,21.00
2022-09-11T12:58:47.526Z,20.96
2022-09-11T13:01:27.238Z,20.95
2022-09-11T13:04:03.335Z,20.95
2022-09-11T13:06:44.501Z,20.92
2022-09-11T13:09:22.950Z,20.87
2022-09-11T13:11:54.921Z,20.83
2022-09-11T13:14:52.889Z,20.82
2022-09-11T13:17:30.361Z,20.82
2022-09-11T13:20:22.746Z,20.80
2022-09-11T13:22:58.517Z,20.77
2022-09-11T13:25:31.071Z,20.72
2022-09-11T13:28:02.867Z,20.66
2022-09-11T13:30:32.831Z,20.62
2022-09-11T13:33:07.925Z,20.61
2022-09-11T13:35:40.516Z,20.57
2022-09-11T13:38:16.744Z,20.48
2022-09-11T13:40:49.869Z,20.44
2022-09-11T13:43:22.107Z,20.42
2022-09-11T13:46:09.684Z,20.42
2022-09-11T13:48:39.205Z,20.38
2022-09-11T13:51:13.486Z,20.36
2022-09-11T13:53:47.053Z,20.38
2022-09-11T13:56:36.308Z,20.38
2022-09-11T13:59:42.972Z,20.35
2022-09-11T14:02:45.092Z,20.37
2022-09-11T14:05:20.830Z,20.34
2022-09-11T14:07:59.844Z,20.31
2022-09-11T14:10:34.193Z,20.35
2022-09-11T14:13:14.180Z,20.28
2022-09-11T14:15:49.127Z,20.19
2022-09-11T14:18:27.255Z,20.16
2022-09-11T14:21:01.095Z,20.10
2022-09-11T14:23:31.392Z,20.05
2022-09-11T14:26:14.287Z,20.05
2022-09-11T14:29:01.559Z,20.03
2022-09-11T14:31:35.145Z,20.03
2022-09-11T14:34:19.675Z,19.97
2022-09-11T14:36:53.464Z,19.98
2022-09-11T14:39:32.178Z,19.98
2022-09-11T14:42:04.136Z,19.97
2022-09-11T14:44:34.020Z,19.91
2022-09-11T14:47:03.942Z,19.93
2022-09-11T14:49:33.232Z,19.94
2022-09-11T14:52:03.272Z,19.94
2022-09-11T14:54:32.968Z,19.92
2022-09-11T14:57:04.104Z,19.88
2022-09-11T14:59:33.620Z,19.86
2022-09-11T15:02:03.395Z,19.84
2022-09-11T15:04:42.236Z,19.81
2022-09-11T15:07:12.971Z,19.78
2022-09-11T15:09:42.837Z,19.76
2022-09-11T15:12:14.945Z,19.70
2022-09-11T15:14:56.283Z,19.65
2022-09-11T15:17:31.630Z,19.55
2022-09-11T15:20:01.175Z,19.48
2022-09-11T15:22:35.394Z,19.35
2022-09-11T15:25:05.131Z,19.26
2022-09-11T15:27:36.690Z,19.15
2022-09-11T15:30:06.875Z,19.11
2022-09-11T15:32:36.332Z,19.08
2022-09-11T15:35:06.225Z,19.00
2022-09-11T15:37:35.534Z,18.95
2022-09-11T15:40:05.740Z,18.92
2022-09-11T15:42:39.640Z,18.83
2022-09-11T15:45:11.101Z,18.76
2022-09-11T15:47:40.943Z,18.73
2022-09-11T15:50:10.543Z,18.70
2022-09-11T15:52:43.962Z,18.73
2022-09-11T15:55:13.479Z,18.75
2022-09-11T15:57:44.235Z,18.78
2022-09-11T16:00:15.246Z,18.75
2022-09-11T16:02:45.725Z,18.70
2022-09-11T16:05:15.662Z,18.58
2022-09-11T16:07:45.049Z,18.49
2022-09-11T16:10:14.667Z,18.41
2022-09-11T16:12:46.390Z,18.29
2022-09-11T16:15:15.942Z,18.24
2022-09-11T16:17:45.328Z,18.09
2022-09-11T16:20:15.363Z,18.02
2022-09-11T16:22:45.515Z,17.92
2022-09-11T16:25:14.787Z,17.82
2022-09-11T16:27:45.468Z,17.71
2022-09-11T16:30:41.692Z,17.56
2022-09-11T16:33:04.292Z,17.46
2022-09-11T16:35:34.138Z,17.42
2022-09-11T16:38:03.805Z,17.36
2022-09-11T16:40:33.294Z,17.24
2022-09-11T16:43:04.167Z,17.21
2022-09-11T16:45:34.729Z,17.15
2022-09-11T16:48:04.985Z,17.06
2022-09-11T16:50:34.203Z,16.99
2022-09-11T16:53:03.376Z,16.95
2022-09-11T16:55:33.254Z,16.91
2022-09-11T16:58:03.949Z,16.86
2022-09-11T17:00:33.522Z,16.79
2022-09-11T17:03:02.812Z,16.71
2022-09-11T17:20:57.161Z,16.25
2022-09-11T17:23:28.270Z,16.20
2022-09-11T17:25:57.356Z,16.20
2022-09-11T17:28:27.636Z,16.13
2022-09-11T17:31:01.434Z,16.07
2022-09-11T17:33:32.237Z,16.02
2022-09-11T17:36:01.801Z,15.97
2022-09-11T17:38:32.758Z,15.94
2022-09-11T17:41:03.921Z,15.92
2022-09-11T17:43:34.297Z,15.90
2022-09-11T17:46:03.677Z,15.84
2022-09-11T17:48:32.823Z,15.73
2022-09-11T17:51:04.028Z,15.70
2022-09-11T17:53:38.562Z,15.66
2022-09-11T17:56:10.773Z,15.59
2022-09-11T17:58:40.628Z,15.57
2022-09-11T18:01:13.664Z,15.52
2022-09-11T18:03:50.743Z,15.46
2022-09-11T18:06:28.385Z,15.42
2022-09-11T18:09:01.916Z,15.40
2022-09-11T18:11:31.843Z,15.36
2022-09-11T18:14:01.236Z,15.36
2022-09-11T18:16:30.366Z,15.35
2022-09-11T18:18:59.799Z,15.33
2022-09-11T18:21:29.184Z,15.31
2022-09-11T18:24:00.495Z,15.27
2022-09-11T18:26:32.177Z,15.22
2022-09-11T18:29:02.563Z,15.17
2022-09-11T18:31:33.155Z,15.09
2022-09-11T18:34:03.075Z,15.01
2022-09-11T18:36:33.337Z,15.01
2022-09-11T18:39:04.438Z,14.97
2022-09-11T18:41:35.347Z,14.95
2022-09-11T18:44:07.319Z,14.94
2022-09-11T18:46:37.361Z,14.90
2022-09-11T18:49:06.790Z,14.86
2022-09-11T18:51:36.303Z,14.83
2022-09-11T18:54:07.087Z,14.78
2022-09-11T18:56:36.825Z,14.71
2022-09-11T18:59:06.107Z,14.66
2022-09-11T19:01:36.196Z,14.64
2022-09-11T19:04:10.189Z,14.65
2022-09-11T19:06:41.106Z,14.63
2022-09-11T19:09:12.945Z,14.63
2022-09-11T19:11:42.915Z,14.61
2022-09-11T19:14:13.646Z,14.59
2022-09-11T19:16:42.993Z,14.49
2022-09-11T19:19:12.478Z,14.48
2022-09-11T19:21:41.521Z,14.47
2022-09-11T19:24:14.071Z,14.45
2022-09-11T19:26:45.635Z,14.47
2022-09-11T19:29:15.907Z,14.46
2022-09-11T19:31:45.918Z,14.46
2022-09-11T19:34:15.945Z,14.45
2022-09-11T19:36:45.244Z,14.44
2022-09-11T19:39:16.088Z,14.36
2022-09-11T19:41:45.231Z,14.35
2022-09-11T19:44:15.490Z,14.27
2022-09-11T19:46:47.065Z,14.24
2022-09-11T19:49:16.422Z,14.16
2022-09-11T19:51:45.707Z,14.16
2022-09-11T19:54:16.511Z,14.08
2022-09-11T19:56:46.126Z,14.07
2022-09-11T19:59:15.646Z,14.01
2022-09-11T20:01:44.827Z,14.01
2022-09-11T20:04:15.794Z,13.95
2022-09-11T20:09:30.320Z,13.91
2022-09-11T20:12:02.857Z,13.92
2022-09-11T20:14:32.231Z,13.94
2022-09-11T20:17:01.688Z,13.92
2022-09-11T20:19:31.106Z,13.86
2022-09-11T20:22:00.733Z,13.86
2022-09-11T20:24:30.240Z,13.81
2022-09-11T20:27:00.428Z,13.78
2022-09-11T20:29:30.912Z,13.80
2022-09-11T20:32:00.767Z,13.75
2022-09-11T20:34:30.033Z,13.72
2022-09-11T20:37:00.866Z,13.75
2022-09-11T20:39:30.335Z,13.76
2022-09-11T20:42:00.600Z,13.73
2022-09-11T20:44:36.249Z,13.74
2022-09-11T20:47:06.367Z,13.73
2022-09-11T20:49:35.498Z,13.74
2022-09-11T20:52:04.800Z,13.76
2022-09-11T20:54:34.122Z,13.73
2022-09-11T20:57:03.827Z,13.71
2022-09-11T20:59:34.565Z,13.72
2022-09-11T21:02:03.869Z,13.71
2022-09-11T21:04:33.006Z,13.64
2022-09-11T21:07:02.318Z,13.58
2022-09-11T21:09:32.097Z,13.56
2022-09-11T21:12:01.224Z,13.56
2022-09-11T21:14:30.450Z,13.57
2022-09-11T21:17:02.230Z,13.55
2022-09-11T21:19:31.398Z,13.49
2022-09-11T21:22:00.676Z,13.50
2022-09-11T21:24:29.760Z,13.51
2022-09-11T21:26:58.941Z,13.52
2022-09-11T21:29:28.304Z,13.54
2022-09-11T21:31:57.347Z,13.51
2022-09-11T21:34:27.905Z,13.51
2022-09-11T21:36:57.241Z,13.51
2022-09-11T21:39:26.380Z,13.49
2022-09-11T21:41:55.701Z,13.46
2022-09-11T21:44:24.720Z,13.47
2022-09-11T21:46:53.769Z,13.45
2022-09-11T21:49:23.184Z,13.46
2022-09-11T21:51:53.626Z,13.47
2022-09-11T21:54:22.709Z,13.46
2022-09-11T21:56:52.157Z,13.43
2022-09-11T21:59:21.316Z,13.37
2022-09-11T22:01:50.475Z,13.31
2022-09-11T22:04:19.804Z,13.28
2022-09-11T22:06:48.858Z,13.23
2022-09-11T22:09:20.825Z,13.24
2022-09-11T22:11:50.258Z,13.23
2022-09-11T22:14:20.338Z,13.20
2022-09-11T22:16:49.371Z,13.20
2022-09-11T22:19:18.681Z,13.18
2022-09-11T22:21:49.897Z,13.17
2022-09-11T22:24:20.719Z,13.17
2022-09-11T22:26:49.846Z,13.12
2022-09-11T22:29:18.905Z,13.14
2022-09-11T22:31:48.226Z,13.11
2022-09-11T22:34:17.862Z,13.12
2022-09-11T22:36:46.896Z,13.11
2022-09-11T22:39:16.472Z,13.06
2022-09-11T22:41:46.914Z,13.03
2022-09-11T22:44:16.167Z,13.01
2022-09-11T22:46:48.738Z,12.99
2022-09-11T22:49:18.112Z,12.99
2022-09-11T22:51:47.359Z,12.94
2022-09-11T22:54:16.795Z,12.94
2022-09-11T22:56:47.546Z,12.95
2022-09-11T22:59:17.324Z,12.95
2022-09-11T23:01:47.680Z,12.92
2022-09-11T23:04:16.877Z,12.88
2022-09-11T23:07:03.517Z,12.88
2022-09-11T23:09:32.654Z,12.90
2022-09-11T23:12:03.609Z,12.90
2022-09-11T23:14:32.674Z,12.94
2022-09-11T23:17:02.050Z,12.90
2022-09-11T23:19:32.617Z,12.84
2022-09-11T23:22:01.649Z,12.85
2022-09-11T23:24:30.835Z,12.85
2022-09-11T23:27:00.082Z,12.81
2022-09-11T23:29:30.732Z,12.82
2022-09-11T23:31:59.802Z,12.81
2022-09-11T23:34:29.090Z,12.81
2022-09-11T23:36:58.202Z,12.81
2022-09-11T23:39:27.337Z,12.78
2022-09-11T23:41:56.558Z,12.78
2022-09-11T23:44:25.575Z,12.76
2022-09-11T23:46:56.252Z,12.78
2022-09-11T23:49:25.459Z,12.76
2022-09-11T23:51:54.611Z,12.76
2022-09-11T23:54:23.788Z,12.75
2022-09-11T23:56:52.974Z,12.68
2022-09-11T23:59:22.203Z,12.69
